Time;durP1;ratioP1;P1;durP2;ratioP2;P2;SDS_P1;SDS_P2;PMS_P1;PMS_P2;Temp;Humidity;BMP_temperature;BMP_pressure;BME280_temperature;BME280_humidity;BME280_pressure;Samples;Min_cycle;Max_cycle;Signal;HPM_P1;HPM_P2
2022/01/13 00:01:19;;;;;;;103.43;34.00;;;;;;;1.69;96.59;103874.63;5046539;28;20414;-71
2022/01/13 00:03:45;;;;;;;111.68;35.60;;;;;;;1.62;96.97;103878.19;5044891;28;20086;-70
2022/01/13 00:06:11;;;;;;;109.57;35.97;;;;;;;1.79;96.67;103879.63;5029825;28;20095;-71
2022/01/13 00:08:37;;;;;;;113.63;34.03;;;;;;;1.89;96.44;103884.59;5027473;28;20033;-70
2022/01/13 00:11:03;;;;;;;113.35;36.47;;;;;;;1.86;95.99;103892.28;5051033;28;20547;-70
2022/01/13 00:13:43;;;;;;;114.43;36.60;;;;;;;1.77;96.25;103889.03;5046125;28;20067;-70
2022/01/13 00:16:38;;;;;;;108.45;35.38;;;;;;;1.74;96.55;103887.38;5050509;28;20029;-70
2022/01/13 00:22:01;;;;;;;106.45;34.42;;;;;;;1.73;96.14;103881.44;5036063;28;20608;-70
2022/01/13 00:24:27;;;;;;;111.13;34.10;;;;;;;1.86;95.87;103882.06;5028128;28;20068;-70
2022/01/13 00:26:54;;;;;;;112.03;36.28;;;;;;;1.79;95.56;103880.50;5047312;28;20033;-70
2022/01/13 00:29:27;;;;;;;101.00;32.53;;;;;;;1.71;95.86;103882.28;5054133;28;20056;-70
2022/01/13 00:31:53;;;;;;;118.45;35.83;;;;;;;1.63;96.38;103872.19;5030269;28;20040;-70
2022/01/13 00:34:19;;;;;;;111.40;35.17;;;;;;;1.71;96.61;103870.38;5027070;28;20091;-70
2022/01/13 00:36:44;;;;;;;102.82;33.67;;;;;;;1.63;96.94;103872.19;5030226;28;20060;-71
2022/01/13 00:39:11;;;;;;;108.97;35.40;;;;;;;1.65;97.22;103877.28;5046485;23;20133;-76
2022/01/13 00:41:37;;;;;;;116.70;35.08;;;;;;;1.65;97.23;103893.47;5032286;28;20491;-74
2022/01/13 00:44:06;;;;;;;116.10;37.55;;;;;;;1.71;96.93;103878.03;5025815;28;20032;-74
2022/01/13 00:46:41;;;;;;;105.22;34.55;;;;;;;1.64;96.89;103884.13;5022198;28;20034;-77
2022/01/13 00:49:07;;;;;;;100.15;34.50;;;;;;;1.65;97.15;103873.00;5022650;28;20034;-77
2022/01/13 00:51:32;;;;;;;107.38;32.92;;;;;;;1.64;97.25;103870.47;5025307;28;20055;-77
2022/01/13 00:54:03;;;;;;;105.93;35.05;;;;;;;1.69;97.10;103874.63;5024540;28;20507;-77
2022/01/13 00:56:30;;;;;;;108.80;35.55;;;;;;;1.64;97.25;103879.00;5024260;28;20116;-74
2022/01/13 00:58:56;;;;;;;111.60;35.42;;;;;;;1.66;96.95;103876.44;5021264;28;20039;-74
2022/01/13 01:01:21;;;;;;;113.28;37.85;;;;;;;1.65;96.72;103885.78;5001360;28;20115;-74
2022/01/13 01:03:47;;;;;;;96.90;34.03;;;;;;;1.57;96.97;103891.91;5037690;28;20113;-75
2022/01/13 01:06:12;;;;;;;107.05;37.08;;;;;;;1.55;97.35;103897.03;5024050;28;20472;-75
2022/01/13 01:08:38;;;;;;;99.43;35.90;;;;;;;1.56;97.77;103901.28;5020346;28;20045;-75
2022/01/13 01:11:06;;;;;;;103.75;35.90;;;;;;;1.56;97.62;103903.81;5026405;28;20346;-77
2022/01/13 01:13:33;;;;;;;111.30;37.78;;;;;;;1.63;97.56;103904.59;5034426;23;20099;-68
2022/01/13 01:16:05;;;;;;;115.18;37.58;;;;;;;1.73;97.16;103909.56;5022528;28;20112;-67
2022/01/13 01:26:42;;;;;;;117.10;36.13;;;;;;;1.73;95.25;103899.34;4984311;28;20057;-67
2022/01/13 01:31:46;;;;;;;;;;;;;;;1.48;95.83;103891.16;5012437;28;20041;-67
2022/01/13 01:36:38;;;;;;;118.50;37.83;;;;;;;1.58;96.13;103891.84;5021974;28;20232;-67
2022/01/13 01:39:06;;;;;;;120.13;37.35;;;;;;;1.45;96.08;103898.88;5015070;28;20033;-67
2022/01/13 01:41:35;;;;;;;120.75;36.55;;;;;;;1.42;96.64;103898.91;5021379;28;20091;-67
2022/01/13 01:44:08;;;;;;;118.47;35.72;;;;;;;1.39;97.13;103890.44;5024835;28;20435;-67
2022/01/13 01:46:45;;;;;;;115.03;36.10;;;;;;;1.35;97.22;103890.47;5007054;28;20030;-67
2022/01/13 01:49:17;;;;;;;111.10;37.03;;;;;;;1.35;97.44;103895.56;5022245;28;20042;-67
2022/01/13 01:51:50;;;;;;;120.47;37.70;;;;;;;1.41;96.85;103898.94;5006679;28;20040;-68
2022/01/13 01:54:16;;;;;;;120.72;38.75;;;;;;;1.40;97.24;103898.09;5025484;28;20037;-67
2022/01/13 01:56:45;;;;;;;120.68;37.80;;;;;;;1.39;97.00;103900.66;5022758;28;20109;-68
2022/01/13 01:59:15;;;;;;;111.03;35.92;;;;;;;1.36;96.96;103915.19;5026232;28;20116;-67
2022/01/13 02:01:42;;;;;;;111.75;36.67;;;;;;;1.34;97.44;103914.38;5022510;28;20034;-68
2022/01/13 02:04:11;;;;;;;101.57;33.28;;;;;;;1.35;96.93;103918.59;5011442;28;20030;-68
2022/01/13 02:06:38;;;;;;;110.28;35.97;;;;;;;1.41;97.41;103916.84;5015274;28;20061;-67
2022/01/13 02:09:09;;;;;;;120.47;39.30;;;;;;;1.40;97.60;103913.44;5009731;28;20034;-67
2022/01/13 02:11:41;;;;;;;115.85;37.63;;;;;;;1.38;97.48;103922.00;5006513;28;20510;-68
2022/01/13 02:17:13;;;;;;;131.35;39.63;;;;;;;1.47;97.29;103921.84;4996851;28;20056;-68
2022/01/13 02:19:43;;;;;;;122.30;38.35;;;;;;;1.37;97.08;103923.69;5029056;28;20117;-67
2022/01/13 02:22:10;;;;;;;124.43;39.10;;;;;;;1.34;97.38;103916.09;4997199;28;20029;-67
2022/01/13 02:24:36;;;;;;;120.07;38.05;;;;;;;1.32;97.75;103916.09;5028458;28;20113;-67
2022/01/13 02:27:04;;;;;;;117.82;37.55;;;;;;;1.34;97.93;103910.97;5026726;28;20034;-67
2022/01/13 02:29:30;;;;;;;121.43;39.15;;;;;;;1.33;97.58;103912.66;5008183;28;20061;-68
2022/01/13 02:31:56;;;;;;;130.07;39.72;;;;;;;1.36;97.42;103914.34;4998367;28;20034;-69
2022/01/13 02:34:22;;;;;;;123.05;39.88;;;;;;;1.46;97.68;103908.22;5026374;28;20034;-67
2022/01/13 02:36:53;;;;;;;127.07;38.97;;;;;;;1.45;97.38;103904.00;5024834;28;20034;-67
2022/01/13 02:39:21;;;;;;;127.47;39.47;;;;;;;1.41;97.55;103906.59;5015055;28;20075;-67
2022/01/13 02:41:46;;;;;;;127.22;39.35;;;;;;;1.44;97.55;103906.56;5005868;28;20056;-68
2022/01/13 02:44:16;;;;;;;129.95;39.78;;;;;;;1.46;96.94;103902.28;4993215;28;20065;-67
2022/01/13 02:49:13;;;;;;;129.48;40.03;;;;;;;1.31;97.30;103903.31;5025869;28;20647;-67
2022/01/13 02:51:41;;;;;;;133.60;40.33;;;;;;;1.40;96.82;103897.25;5013538;28;20229;-67
2022/01/13 02:54:07;;;;;;;122.50;39.40;;;;;;;1.36;97.26;103897.28;5026199;28;20044;-67
2022/01/13 02:56:34;;;;;;;127.95;42.20;;;;;;;1.39;96.90;103901.50;5026285;28;20021;-67
2022/01/13 02:59:00;;;;;;;119.15;39.35;;;;;;;1.30;97.43;103899.06;5005489;28;20040;-67
2022/01/13 03:01:26;;;;;;;134.52;40.97;;;;;;;1.31;97.72;103896.50;5025811;28;20407;-67
2022/01/13 03:03:52;;;;;;;131.00;41.13;;;;;;;1.35;96.96;103889.63;5018758;28;20487;-67
2022/01/13 03:06:28;;;;;;;123.03;40.53;;;;;;;1.34;96.93;103893.91;5013210;28;20034;-67
2022/01/13 03:08:54;;;;;;;120.50;39.88;;;;;;;1.38;96.31;103892.16;5028918;28;20034;-67
2022/01/13 03:11:24;;;;;;;113.85;39.60;;;;;;;1.31;96.30;103893.94;5020976;28;20109;-68
2022/01/13 03:13:49;;;;;;;107.15;38.47;;;;;;;1.22;97.14;103883.00;5026585;28;20033;-67
2022/01/13 03:16:18;;;;;;;132.68;41.22;;;;;;;1.26;96.98;103882.94;5016668;28;20521;-68
2022/01/13 03:18:45;;;;;;;116.25;39.97;;;;;;;1.32;96.88;103875.19;5027992;28;20033;-67
2022/01/13 03:21:11;;;;;;;119.95;40.88;;;;;;;1.25;97.03;103877.84;5027207;28;20063;-67
2022/01/13 03:23:37;;;;;;;129.23;40.88;;;;;;;1.27;97.29;103886.34;5028997;28;20514;-67
2022/01/13 03:26:03;;;;;;;117.28;40.17;;;;;;;1.18;97.35;103882.19;5029335;28;20117;-67
2022/01/13 03:28:39;;;;;;;136.25;43.97;;;;;;;1.24;97.23;103887.19;5013230;28;20040;-67
2022/01/13 03:31:08;;;;;;;124.63;40.80;;;;;;;1.21;97.10;103887.25;5021675;28;20041;-67
2022/01/13 03:33:34;;;;;;;120.22;39.67;;;;;;;1.19;97.09;103888.13;5008527;28;20037;-67
2022/01/13 03:36:04;;;;;;;131.68;42.90;;;;;;;1.17;97.58;103876.22;5013232;28;20025;-67
2022/01/13 03:38:30;;;;;;;126.90;41.58;;;;;;;1.21;97.39;103882.16;5006430;28;20530;-68
2022/01/13 03:40:56;;;;;;;129.18;41.97;;;;;;;1.16;97.75;103887.31;5009373;28;20079;-67
2022/01/13 03:43:22;;;;;;;132.52;42.95;;;;;;;1.15;98.38;103872.00;5010078;28;20706;-68
2022/01/13 03:45:48;;;;;;;139.50;42.15;;;;;;;1.16;98.42;103878.78;5015697;28;20033;-67
2022/01/13 03:48:17;;;;;;;118.47;41.67;;;;;;;1.13;98.53;103878.81;5029600;28;20033;-67
2022/01/13 03:50:44;;;;;;;129.23;43.33;;;;;;;1.14;98.03;103890.75;5029833;28;20451;-67
2022/01/13 03:53:28;;;;;;;119.68;40.65;;;;;;;1.10;98.75;103891.66;5010873;28;20033;-67
2022/01/13 03:55:59;;;;;;;117.35;38.65;;;;;;;1.11;98.64;103893.34;5019642;28;20694;-67
2022/01/13 03:58:59;;;;;;;122.47;39.80;;;;;;;1.09;98.48;103893.38;5016047;28;20037;-67
2022/01/13 04:01:43;;;;;;;109.30;37.72;;;;;;;1.15;98.21;103888.19;5030466;28;20460;-67
2022/01/13 04:04:09;;;;;;;102.80;37.92;;;;;;;1.11;97.66;103890.78;5013983;28;20076;-67
2022/01/13 04:06:41;;;;;;;101.18;35.08;;;;;;;1.10;97.84;103895.06;5016612;28;20412;-67
2022/01/13 04:09:30;;;;;;;103.60;37.27;;;;;;;1.09;97.88;103892.50;5023948;28;20043;-67
2022/01/13 04:11:56;;;;;;;109.53;36.45;;;;;;;1.08;97.59;103893.41;5030073;28;20033;-68
2022/01/13 04:14:29;;;;;;;108.60;39.67;;;;;;;1.09;98.01;103887.41;5029175;28;20041;-67
2022/01/13 04:16:55;;;;;;;118.18;40.40;;;;;;;1.05;97.82;103894.25;5015553;28;20099;-67
2022/01/13 04:19:21;;;;;;;109.53;38.78;;;;;;;1.04;97.74;103887.47;4995570;28;20394;-67
2022/01/13 04:21:46;;;;;;;102.35;36.78;;;;;;;1.05;98.09;103890.88;5028534;28;20038;-67
2022/01/13 04:24:15;;;;;;;118.68;39.75;;;;;;;1.03;97.47;103884.94;5018907;28;20112;-67
2022/01/13 04:26:43;;;;;;;119.28;41.00;;;;;;;1.09;97.94;103878.03;5029868;28;20041;-67
2022/01/13 04:31:43;;;;;;;120.20;39.22;;;;;;;0.89;97.87;103869.78;5015111;28;20037;-67
2022/01/13 04:34:10;;;;;;;114.25;38.88;;;;;;;0.90;98.00;103872.28;5009631;28;20069;-67
2022/01/13 04:36:42;;;;;;;127.35;40.97;;;;;;;0.92;98.24;103873.13;5027546;28;20668;-67
2022/01/13 04:39:10;;;;;;;107.78;40.45;;;;;;;0.84;98.70;103867.25;5007526;28;20033;-67
2022/01/13 04:41:38;;;;;;;120.65;44.45;;;;;;;0.87;98.39;103877.44;5011177;28;20067;-67
2022/01/13 04:44:09;;;;;;;113.43;40.75;;;;;;;0.88;98.87;103874.00;5008342;28;20026;-67
2022/01/13 04:46:36;;;;;;;118.93;41.78;;;;;;;0.91;98.87;103878.25;5009633;28;20546;-67
2022/01/13 04:49:08;;;;;;;116.43;43.03;;;;;;;0.87;99.19;103876.59;5021034;28;20025;-67
2022/01/13 04:51:35;;;;;;;118.68;41.25;;;;;;;1.00;98.55;103882.41;5026702;28;20036;-67
2022/01/13 04:54:01;;;;;;;112.32;40.25;;;;;;;0.93;98.13;103882.47;5022007;28;21030;-68
2022/01/13 04:56:38;;;;;;;118.50;40.30;;;;;;;0.88;98.35;103874.00;5008714;28;20094;-67
2022/01/13 04:59:06;;;;;;;113.95;39.10;;;;;;;0.80;98.58;103870.72;5027889;28;20503;-67
2022/01/13 05:01:32;;;;;;;107.53;39.45;;;;;;;0.87;98.00;103871.50;5028328;28;20041;-67
2022/01/13 05:03:57;;;;;;;115.93;40.45;;;;;;;0.85;97.90;103862.97;5027899;28;20037;-67
2022/01/13 05:06:23;;;;;;;120.05;41.22;;;;;;;0.94;97.72;103863.75;5028206;28;20087;-67
2022/01/13 05:08:49;;;;;;;111.88;39.35;;;;;;;0.86;98.09;103854.47;5027089;28;20037;-67
2022/01/13 05:11:16;;;;;;;110.30;41.35;;;;;;;0.82;97.98;103857.91;5009686;28;20683;-67
2022/01/13 05:13:43;;;;;;;116.43;40.42;;;;;;;0.77;98.40;103856.28;5028454;28;20041;-67
2022/01/13 05:16:17;;;;;;;126.10;43.05;;;;;;;0.90;98.67;103846.72;5027060;28;20032;-67
2022/01/13 05:18:53;;;;;;;121.93;40.17;;;;;;;0.87;98.41;103841.69;5006933;28;20030;-67
2022/01/13 05:21:37;;;;;;;105.68;38.72;;;;;;;0.76;98.36;103840.94;5028399;28;20025;-67
2022/01/13 05:24:04;;;;;;;112.85;38.75;;;;;;;0.72;98.86;103844.41;5014968;28;20033;-67
2022/01/13 05:26:30;;;;;;;115.38;39.80;;;;;;;0.70;98.72;103843.59;5006883;28;20041;-68
2022/01/13 05:28:56;;;;;;;106.78;38.08;;;;;;;0.71;98.71;103838.44;5028443;28;20069;-68
2022/01/13 05:31:22;;;;;;;105.07;36.90;;;;;;;0.71;99.01;103835.88;5011093;28;20068;-67
2022/01/13 05:33:48;;;;;;;110.82;38.25;;;;;;;0.72;99.71;103840.16;5028013;28;20037;-67
2022/01/13 05:36:14;;;;;;;110.40;37.53;;;;;;;0.79;99.74;103843.44;5028380;28;20673;-68
2022/01/13 05:38:42;;;;;;;107.50;37.53;;;;;;;0.82;98.84;103840.88;5009325;28;20402;-67
2022/01/13 05:41:09;;;;;;;110.10;36.50;;;;;;;0.78;99.53;103840.06;5011859;28;20091;-67
2022/01/13 05:43:35;;;;;;;101.80;36.28;;;;;;;0.79;99.42;103843.44;5028416;28;20013;-67
2022/01/13 05:46:07;;;;;;;113.35;38.45;;;;;;;0.77;99.42;103847.75;5027405;28;20025;-72
2022/01/13 05:48:33;;;;;;;94.87;34.57;;;;;;;0.78;99.47;103846.88;5027953;28;20120;-67
2022/01/13 05:51:02;;;;;;;97.13;37.17;;;;;;;0.80;99.62;103845.16;5010300;28;20141;-68
2022/01/13 05:53:28;;;;;;;108.50;34.83;;;;;;;0.82;99.65;103853.66;5010471;28;20039;-67
2022/01/13 05:55:57;;;;;;;108.70;36.58;;;;;;;0.75;99.23;103845.22;5026580;28;20030;-68
2022/01/13 05:58:23;;;;;;;98.57;35.47;;;;;;;0.71;99.23;103829.94;5011206;28;20040;-68
2022/01/13 06:00:48;;;;;;;100.28;35.70;;;;;;;0.74;99.42;103829.91;5011699;28;20041;-67
2022/01/13 06:03:14;;;;;;;98.72;34.25;;;;;;;0.75;99.26;103822.25;5020193;28;20497;-67
2022/01/13 06:05:40;;;;;;;94.28;33.30;;;;;;;0.81;99.08;103821.31;5025259;28;20049;-67
2022/01/13 06:08:06;;;;;;;100.35;35.42;;;;;;;0.87;98.99;103818.69;5008598;28;20033;-68
2022/01/13 06:10:31;;;;;;;87.50;33.30;;;;;;;0.72;97.96;103827.38;5012419;28;20041;-67
2022/01/13 06:12:57;;;;;;;110.38;35.95;;;;;;;0.79;98.50;103825.56;5011700;28;20488;-67
2022/01/13 06:15:25;;;;;;;102.50;35.15;;;;;;;0.69;98.19;103829.94;5014408;28;20072;-67
2022/01/13 06:17:53;;;;;;;107.45;36.30;;;;;;;0.78;98.53;103836.66;5017059;28;20510;-67
2022/01/13 06:20:20;;;;;;;96.93;33.15;;;;;;;0.71;98.88;103838.44;5009160;28;20462;-67
2022/01/13 06:22:47;;;;;;;107.07;36.70;;;;;;;0.72;98.71;103831.63;5030431;28;20038;-68
2022/01/13 06:25:14;;;;;;;107.07;35.15;;;;;;;0.65;99.25;103835.97;5027382;28;20029;-67
2022/01/13 06:27:41;;;;;;;99.18;34.58;;;;;;;0.65;99.16;103833.41;5017530;28;20116;-68
2022/01/13 06:30:10;;;;;;;112.68;37.35;;;;;;;0.66;99.88;103829.13;5025093;28;20053;-68
2022/01/13 06:32:37;;;;;;;120.57;38.25;;;;;;;0.60;99.52;103831.75;5027814;28;20499;-67
2022/01/13 06:35:04;;;;;;;120.95;38.15;;;;;;;0.62;99.83;103841.09;5024116;28;20034;-67
2022/01/13 06:37:30;;;;;;;110.32;38.90;;;;;;;0.60;100.00;103841.97;5008430;28;20061;-67
2022/01/13 06:39:55;;;;;;;114.82;36.40;;;;;;;0.60;100.00;103837.72;4999775;28;20069;-67
2022/01/13 06:42:21;;;;;;;106.97;35.58;;;;;;;0.58;100.00;103836.88;5026609;28;20071;-67
2022/01/13 06:44:47;;;;;;;110.05;37.38;;;;;;;0.64;100.00;103836.84;5025637;28;20134;-68
2022/01/13 06:47:13;;;;;;;107.25;36.03;;;;;;;0.71;99.95;103845.25;5007794;28;20483;-67
2022/01/13 06:49:39;;;;;;;107.15;36.63;;;;;;;0.67;100.00;103846.16;5009966;28;20064;-67
2022/01/13 06:52:06;;;;;;;118.88;36.08;;;;;;;0.84;99.62;103845.97;5011312;28;20030;-68
2022/01/13 06:54:34;;;;;;;99.43;35.30;;;;;;;0.77;99.25;103845.19;5029766;28;20037;-67
2022/01/13 06:57:00;;;;;;;108.30;35.20;;;;;;;0.65;99.42;103846.19;5028475;28;20041;-67
2022/01/13 06:59:26;;;;;;;105.28;32.70;;;;;;;0.74;99.14;103850.34;5030136;28;20091;-67
2022/01/13 07:01:52;;;;;;;109.80;34.15;;;;;;;0.60;99.44;103853.03;5018730;28;20598;-68
2022/01/13 07:04:21;;;;;;;102.13;34.90;;;;;;;0.51;99.40;103845.47;5027321;28;20048;-68
2022/01/13 07:06:46;;;;;;;109.63;35.00;;;;;;;0.55;99.53;103850.53;5026332;28;20099;-67
2022/01/13 07:09:14;;;;;;;116.05;37.10;;;;;;;0.50;100.00;103856.56;5012197;28;20483;-69
2022/01/13 07:11:40;;;;;;;120.57;37.20;;;;;;;0.57;100.00;103847.97;4994386;28;20030;-67
2022/01/13 07:14:06;;;;;;;121.10;38.78;;;;;;;0.54;100.00;103848.00;5024298;28;20038;-67
2022/01/13 07:16:33;;;;;;;118.30;37.83;;;;;;;0.58;99.97;103840.31;5029436;28;20088;-68
2022/01/13 07:18:59;;;;;;;106.07;34.38;;;;;;;0.53;100.00;103856.53;5026082;28;20103;-67
2022/01/13 07:21:27;;;;;;;134.23;40.92;;;;;;;0.62;100.00;103855.59;5024090;28;20037;-67
2022/01/13 07:23:54;;;;;;;138.82;39.60;;;;;;;0.52;100.00;103868.44;5025706;28;20098;-67
2022/01/13 07:26:19;;;;;;;123.03;36.35;;;;;;;0.61;100.00;103861.56;5033775;28;20578;-67
2022/01/13 07:28:45;;;;;;;119.32;37.70;;;;;;;0.68;99.65;103866.59;5028436;28;20034;-67
2022/01/13 07:31:14;;;;;;;114.43;36.22;;;;;;;0.56;99.51;103861.59;5006686;28;20180;-67
2022/01/13 07:33:40;;;;;;;115.82;35.53;;;;;;;0.49;99.59;103865.06;5021476;28;20044;-67
2022/01/13 07:36:06;;;;;;;100.78;34.15;;;;;;;0.50;99.31;103862.50;5025507;28;20124;-67
2022/01/13 07:38:35;;;;;;;107.60;34.55;;;;;;;0.44;100.00;103867.69;4993842;28;20152;-68
2022/01/13 07:41:01;;;;;;;116.90;34.60;;;;;;;0.44;99.96;103874.50;5028649;28;20029;-68
2022/01/13 07:43:27;;;;;;;95.97;32.08;;;;;;;0.42;99.98;103874.50;5026625;28;20783;-67
2022/01/13 07:45:56;;;;;;;108.05;36.58;;;;;;;0.45;100.00;103868.53;5025332;28;20112;-67
2022/01/13 07:48:22;;;;;;;119.25;36.20;;;;;;;0.51;100.00;103868.44;5026060;28;20373;-66
2022/01/13 07:50:48;;;;;;;123.43;37.47;;;;;;;0.66;100.00;103868.31;5026833;28;20124;-68
2022/01/13 07:53:14;;;;;;;115.47;36.60;;;;;;;0.62;99.98;103873.47;4987908;28;20042;-67
2022/01/13 07:55:40;;;;;;;106.63;35.05;;;;;;;0.52;100.00;103876.09;5010212;28;20091;-67
2022/01/13 07:58:06;;;;;;;113.20;33.70;;;;;;;0.53;99.77;103867.59;5005421;28;20138;-67
2022/01/13 08:00:32;;;;;;;106.88;35.85;;;;;;;0.49;100.00;103875.28;5010374;28;20618;-68
2022/01/13 08:02:58;;;;;;;107.38;36.60;;;;;;;0.57;99.98;103876.91;5024909;28;20163;-67
2022/01/13 08:05:24;;;;;;;113.78;35.35;;;;;;;0.47;100.00;103880.44;5011127;28;20072;-67
2022/01/13 08:07:49;;;;;;;107.03;34.35;;;;;;;0.44;100.00;103883.00;5024712;28;20156;-67
2022/01/13 08:10:15;;;;;;;98.57;33.33;;;;;;;0.43;100.00;103894.06;5008623;28;20060;-68
2022/01/13 08:12:41;;;;;;;87.40;31.50;;;;;;;0.45;100.00;103883.84;5023580;28;20505;-67
2022/01/13 08:15:12;;;;;;;101.93;33.33;;;;;;;0.46;100.00;103888.09;5026887;28;20029;-67
2022/01/13 08:20:22;;;;;;;107.32;34.85;;;;;;;0.42;100.00;103887.28;5009962;28;20029;-68
2022/01/13 08:22:48;;;;;;;114.75;36.83;;;;;;;0.48;100.00;103888.94;5023671;28;20072;-67
2022/01/13 08:25:15;;;;;;;110.60;36.67;;;;;;;0.46;100.00;103878.72;5011420;28;20119;-67
2022/01/13 08:27:40;;;;;;;125.28;39.97;;;;;;;0.47;100.00;103885.53;5024340;28;20215;-67
2022/01/13 08:30:07;;;;;;;130.15;39.83;;;;;;;0.56;100.00;103884.59;5027596;28;20037;-66
2022/01/13 08:32:33;;;;;;;122.63;39.15;;;;;;;0.49;100.00;103888.06;5020468;28;20029;-67
2022/01/13 08:34:58;;;;;;;117.72;38.63;;;;;;;0.61;99.74;103893.06;5009288;28;20132;-67
2022/01/13 08:37:24;;;;;;;123.97;38.78;;;;;;;0.52;99.26;103893.97;5023357;28;20080;-67
2022/01/13 08:39:55;;;;;;;115.75;38.50;;;;;;;0.47;99.61;103898.31;5027846;28;20499;-67
2022/01/13 08:42:22;;;;;;;113.63;39.35;;;;;;;0.50;99.79;103897.41;5023063;28;20037;-67
2022/01/13 08:44:48;;;;;;;137.20;42.85;;;;;;;0.51;100.00;103905.06;5007509;28;20052;-67
2022/01/13 08:47:14;;;;;;;117.38;38.13;;;;;;;0.48;100.00;103906.81;5025462;28;20071;-67
2022/01/13 08:49:41;;;;;;;126.40;39.33;;;;;;;0.48;100.00;103904.25;5008882;28;20507;-68
2022/01/13 08:52:10;;;;;;;132.02;41.83;;;;;;;0.50;100.00;103897.41;5011029;28;20091;-67
2022/01/13 08:54:36;;;;;;;135.90;40.15;;;;;;;0.50;100.00;103907.63;5005259;28;20038;-67
2022/01/13 08:57:02;;;;;;;128.55;43.28;;;;;;;0.52;99.93;103900.81;5024932;28;20105;-67
2022/01/13 08:59:28;;;;;;;125.05;39.17;;;;;;;0.54;100.00;103906.75;5005270;28;20040;-68
2022/01/13 09:01:55;;;;;;;127.75;40.88;;;;;;;0.60;100.00;103904.13;5003629;28;20041;-68
2022/01/13 09:04:21;;;;;;;117.47;40.53;;;;;;;0.67;99.77;103904.91;5004783;28;20087;-68
2022/01/13 09:06:47;;;;;;;114.57;38.97;;;;;;;0.59;99.67;103907.56;5012640;28;20037;-67
2022/01/13 09:09:16;;;;;;;115.97;40.05;;;;;;;0.58;100.00;103909.25;5023373;28;20031;-67
2022/01/13 09:11:43;;;;;;;130.50;43.90;;;;;;;0.68;99.93;103911.69;5026278;28;20434;-67
2022/01/13 09:14:09;;;;;;;194.65;68.50;;;;;;;0.66;99.38;103913.44;5010854;28;20033;-67
2022/01/13 09:16:42;;;;;;;146.10;43.72;;;;;;;0.66;99.87;103919.41;5025676;28;20108;-67
2022/01/13 09:19:10;;;;;;;130.00;43.33;;;;;;;0.70;99.47;103917.66;5007957;28;20514;-68
2022/01/13 09:21:38;;;;;;;116.68;38.10;;;;;;;0.73;99.34;103913.34;5025143;28;20381;-67
2022/01/13 09:24:10;;;;;;;127.07;38.67;;;;;;;0.86;98.95;103924.28;5015486;28;20043;-67
2022/01/13 09:26:37;;;;;;;120.93;38.58;;;;;;;0.76;98.28;103923.53;5022022;28;20048;-67
2022/01/13 09:29:05;;;;;;;106.78;37.10;;;;;;;0.70;98.61;103922.78;5022214;28;20033;-69
2022/01/13 09:31:32;;;;;;;124.72;39.33;;;;;;;0.64;98.87;103927.94;5007288;28;20495;-67
2022/01/13 09:33:58;;;;;;;120.60;38.80;;;;;;;0.62;99.35;103927.94;5021004;28;20049;-68
2022/01/13 09:36:24;;;;;;;116.20;37.35;;;;;;;0.64;99.24;103921.13;5000100;28;20080;-68
2022/01/13 09:38:50;;;;;;;103.22;35.42;;;;;;;0.65;99.53;103922.81;5027427;28;20037;-67
2022/01/13 09:41:16;;;;;;;127.35;40.97;;;;;;;0.68;99.92;103925.34;5004907;28;20162;-67
2022/01/13 09:43:45;;;;;;;114.90;38.90;;;;;;;0.85;98.80;103917.50;5022456;28;20511;-68
2022/01/13 09:46:11;;;;;;;122.10;40.92;;;;;;;0.72;98.46;103911.66;5002249;28;20156;-68
2022/01/13 09:48:41;;;;;;;113.10;39.42;;;;;;;0.76;98.38;103920.16;5034642;28;20052;-68
2022/01/13 09:51:07;;;;;;;124.10;38.63;;;;;;;0.74;98.30;103909.94;5028490;28;20037;-68
2022/01/13 09:53:34;;;;;;;121.82;38.50;;;;;;;0.89;98.01;103911.50;5024683;28;20034;-68
2022/01/13 09:56:00;;;;;;;112.93;39.13;;;;;;;0.81;97.45;103912.44;5024819;28;20530;-67
2022/01/13 09:58:26;;;;;;;103.90;36.03;;;;;;;0.76;97.34;103920.16;4981965;28;20483;-67
2022/01/13 10:00:52;;;;;;;106.40;36.17;;;;;;;0.76;97.65;103921.00;5028228;28;20041;-67
2022/01/13 10:03:25;;;;;;;110.57;34.90;;;;;;;0.73;98.15;103923.56;5020779;28;20033;-67
2022/01/13 10:05:53;;;;;;;102.45;33.97;;;;;;;0.75;97.77;103921.88;5012559;28;21079;-67
2022/01/13 10:08:23;;;;;;;100.70;33.58;;;;;;;0.80;97.33;103920.97;5017222;28;20032;-68
2022/01/13 10:10:49;;;;;;;99.32;35.63;;;;;;;0.74;97.34;103924.44;5013054;28;20044;-67
2022/01/13 10:13:29;;;;;;;98.05;33.75;;;;;;;0.72;97.00;103923.59;4987516;28;20491;-67
2022/01/13 10:18:46;;;;;;;104.72;34.50;;;;;;;0.71;97.23;103919.34;5013718;28;20203;-68
2022/01/13 10:21:20;;;;;;;111.22;35.55;;;;;;;0.74;96.52;103915.06;5029119;28;20492;-67
2022/01/13 10:24:12;;;;;;;103.45;33.80;;;;;;;0.75;96.99;103924.44;4997153;28;20040;-67
2022/01/13 10:26:40;;;;;;;99.80;31.85;;;;;;;0.71;96.95;103929.56;4997848;28;20535;-68
2022/01/13 10:29:07;;;;;;;96.13;31.60;;;;;;;0.66;97.50;103931.31;5006006;28;20045;-67
2022/01/13 10:32:06;;;;;;;95.90;31.90;;;;;;;0.66;97.56;103924.50;5025024;28;20041;-66
2022/01/13 10:34:32;;;;;;;91.20;30.77;;;;;;;0.79;97.45;103925.22;5000990;28;20056;-68
2022/01/13 10:37:00;;;;;;;95.78;31.83;;;;;;;0.74;97.07;103927.81;5008878;28;20099;-67
2022/01/13 10:39:47;;;;;;;94.35;31.75;;;;;;;0.79;97.13;103927.75;5025207;28;20129;-68
2022/01/13 10:42:31;;;;;;;88.35;30.95;;;;;;;0.74;97.32;103927.00;5003514;28;20163;-67
2022/01/13 10:44:58;;;;;;;100.10;31.52;;;;;;;0.84;97.77;103930.28;5027559;28;20072;-68
2022/01/13 10:47:25;;;;;;;89.20;30.67;;;;;;;0.85;97.61;103917.50;5011235;28;20029;-67
2022/01/13 10:49:50;;;;;;;90.68;31.40;;;;;;;0.94;97.60;103913.97;5028790;28;20029;-67
2022/01/13 10:52:25;;;;;;;86.10;30.63;;;;;;;0.96;97.90;103915.69;5023715;28;20041;-68
2022/01/13 10:55:07;;;;;;;95.53;31.30;;;;;;;0.99;97.59;103913.94;5027242;28;20025;-67
2022/01/13 10:57:34;;;;;;;86.28;29.60;;;;;;;1.00;96.91;103908.81;5028261;28;20033;-67
2022/01/13 11:00:01;;;;;;;85.57;29.48;;;;;;;1.01;96.90;103905.38;5008242;28;20061;-67
2022/01/13 11:02:27;;;;;;;80.45;27.92;;;;;;;1.13;97.01;103904.38;5019704;28;20041;-67
2022/01/13 11:04:53;;;;;;;88.10;28.08;;;;;;;1.16;96.55;103904.34;5026606;28;20021;-68
2022/01/13 11:07:23;;;;;;;85.25;28.77;;;;;;;1.28;96.65;103898.25;5020924;28;20117;-68
2022/01/13 11:09:53;;;;;;;83.07;29.33;;;;;;;1.28;96.74;103888.00;5025033;28;20034;-67
2022/01/13 11:12:40;;;;;;;77.75;27.98;;;;;;;1.36;97.00;103887.06;5026265;28;20060;-68
2022/01/13 11:15:12;;;;;;;87.97;30.05;;;;;;;1.44;96.46;103876.72;5008525;28;20060;-68
2022/01/13 11:17:38;;;;;;;72.00;28.00;;;;;;;1.43;96.36;103876.72;5012732;28;20876;-67
2022/01/13 11:20:23;;;;;;;85.63;29.08;;;;;;;1.52;95.81;103877.44;5026441;28;20275;-67
2022/01/13 11:22:51;;;;;;;83.60;28.25;;;;;;;1.61;94.52;103867.97;5025616;28;20033;-67
2022/01/13 11:25:23;;;;;;;73.80;26.90;;;;;;;1.68;94.64;103867.84;5024556;28;20083;-68
2022/01/13 11:27:52;;;;;;;74.13;28.00;;;;;;;1.75;94.71;103869.44;4998639;28;20033;-67
2022/01/13 11:30:21;;;;;;;76.15;27.48;;;;;;;1.89;94.57;103869.22;5010001;28;20025;-67
2022/01/13 11:32:48;;;;;;;70.95;27.52;;;;;;;1.98;94.24;103864.81;5015409;28;20406;-67
2022/01/13 11:35:19;;;;;;;79.05;30.20;;;;;;;1.99;93.32;103862.25;5023867;28;20052;-68
2022/01/13 11:37:45;;;;;;;75.10;27.65;;;;;;;2.05;93.14;103863.84;5009522;28;20041;-67
2022/01/13 11:40:26;;;;;;;70.05;27.15;;;;;;;2.08;93.25;103858.69;5009444;28;20033;-68
2022/01/13 11:42:52;;;;;;;77.35;28.05;;;;;;;2.12;93.65;103847.53;5027666;28;20029;-67
2022/01/13 11:45:20;;;;;;;81.78;28.95;;;;;;;2.17;93.55;103860.22;5025825;28;20513;-68